Ευχαριστούμε που συμβάλλετε στη διατήρηση της σελίδας μας.

Thank you for your donations, it really helps to maintain the page.


Meteo Stats And More









Fire Weather Index (FWI)

Kastelokampos Rion more information Kastelokampos Rion


Romanos Cam more information Romanos Cam


Thunder radar more information blitzortung!


Rain radar more information rain snow radar


Visit our other weather sites:

Meteopatras.Eu in
Euweather NetworkMeteopatras.Eu in Euweather Network

Weather CloudWeather Cloud

PWS WeatherPWS Weather

Awekas NetWeather data from station Patra-Ketx

WunderGroundWeather data from station Patra-Ketx




Provided and Supervised by : Moulas Andreas

 Patra, Greece - Latitude : 38°14'21" N - Longitude : 21°45'5" E - Altitude : 56m

Nearby METAR Reports

Warning: A non-numeric value encountered in /storage/content/70/1007070/meteopatras.eu/public_html/weather/metar/metarDisplay.php on line 166 Warning: A non-numeric value encountered in /storage/content/70/1007070/meteopatras.eu/public_html/weather/metar/metarDisplay.php on line 166 Warning: A non-numeric value encountered in /storage/content/70/1007070/meteopatras.eu/public_html/weather/metar/metarDisplay.php on line 166 Warning: A non-numeric value encountered in /storage/content/70/1007070/meteopatras.eu/public_html/weather/metar/metarDisplay.php on line 166 Warning: A non-numeric value encountered in /storage/content/70/1007070/meteopatras.eu/public_html/weather/metar/metarDisplay.php on line 166 Warning: A non-numeric value encountered in /storage/content/70/1007070/meteopatras.eu/public_html/weather/metar/metarDisplay.php on line 166 Warning: A non-numeric value encountered in /storage/content/70/1007070/meteopatras.eu/public_html/weather/metar/metarDisplay.php on line 166
   
LGRX - Araxos
Updated: 27-11-2020 05:50
NOT Current
Clear  
Clear  
   Wind: Calm
Wind: Calm
Temperature: 7°C
Dew Point: 1°C
Humidity: 66%
Barometer: 1021 hPa
Visibility: More than 10 km
Cloud details: Clear
LGRX 270350Z 00000KT CAVOK 07/01 Q1021
LGAD - Andravida
Updated: 27-11-2020 05:50
NOT Current
Clear  
Clear  
   Wind: Calm
Wind: Calm
Temperature: 6°C
Dew Point: 2°C
Humidity: 76%
Barometer: 1021 hPa
Visibility: More than 10 km
Cloud details: Clear
LGAD 270350Z 00000KT CAVOK 06/02 Q1021
LGZA - Zakinthos
Updated: 26-11-2020 19:50
NOT Current
Clear  
Clear  
   Wind: Calm
Wind: Calm
Temperature: 13°C
Dew Point: 5°C
Humidity: 59%
Barometer: 1020 hPa
Visibility: More than 10 km
Cloud details: Clear
LGZA 261750Z 00000KT CAVOK 13/05 Q1020
LGKF - Kefallinia
Updated: 26-11-2020 17:50
NOT Current
Clear  
Clear  
   Wind: Calm
Wind: Calm
Temperature: 12°C
Dew Point: 8°C
Humidity: 77%
Barometer: 1020 hPa
Visibility: More than 10 km
Cloud details: Clear
LGKF 261550Z 00000KT CAVOK 12/08 Q1020
LGPZ - Preveza
Updated: 27-11-2020 05:50
NOT Current
Clear  
Clear  
   Wind: NE 13 km/h
Wind: NE 13 km/h
Temperature: 11°C
Dew Point: 5°C
Humidity: 67%
Barometer: 1021 hPa
Visibility: More than 10 km
Cloud details: Clear
LGPZ 270350Z 05007KT CAVOK 11/05 Q1021
LGKL - Kalamata
Updated: 27-11-2020 05:50
NOT Current
Few Clouds  
Few Clouds  
   Wind: NNW 9.3 km/h
Wind: NNW 9.3 km/h
Temperature: 5°C
Wind Chill: 3°C
Dew Point: 1°C
Humidity: 76%
Barometer: 1021 hPa
Clouds: Few Clouds
Visibility: 8 km
Cloud details: Few Clouds 3000 ft
LGKL 270350Z 34005KT 8000 FEW030 05/01 Q1021
LGKR - Kerkyra
Updated: 27-11-2020 05:50
NOT Current
Clear  
Clear  
   Wind: Calm
Wind: Calm
Temperature: 8°C
Dew Point: 6°C
Humidity: 87%
Barometer: 1023 hPa
Visibility: More than 10 km
Cloud details: Clear
LGKR 270350Z 00000KT CAVOK 08/06 Q1023 NOSIG
LGIO - Iwannina
Updated: 27-11-2020 05:50
NOT Current
  
  
   Wind: varies 5.6 km/h
Wind: varies 5.6 km/h
Temperature: -2°C
Wind Chill: -4°C
Dew Point: -4°C
Humidity: 86%
Barometer: 1022 hPa
LGIO 270350Z AUTO VRB03KT //// // ////// M02/M04 Q1022 RE//
LGPZ - Leykada
Updated: 27-11-2020 05:50
NOT Current
Clear  
Clear  
   Wind: NE 13 km/h
Wind: NE 13 km/h
Temperature: 11°C
Dew Point: 5°C
Humidity: 67%
Barometer: 1021 hPa
Visibility: More than 10 km
Cloud details: Clear
LGPZ 270350Z 05007KT CAVOK 11/05 Q1021
LGEL - Elefsina
Updated: 27-11-2020 05:50
NOT Current
Few Clouds  
Few Clouds  
   Wind: NNW 7.4 km/h
Wind: NNW 7.4 km/h
Temperature: 13°C
Dew Point: 4°C
Humidity: 55%
Barometer: 1020 hPa
Clouds: Few Clouds
Visibility: More than 10 km
Cloud details: Few Clouds 2500 ft
LGEL 270350Z 33004KT 9999 FEW025 13/04 Q1020
LGKC - Kythira
Updated: 26-11-2020 18:50
NOT Current
Partly Cloudy  
Partly Cloudy  
   Wind: North 18.5 km/h
Wind: North 18.5 km/h
Temperature: 13°C
Dew Point: 10°C
Humidity: 82%
Barometer: 1021 hPa
Clouds: Partly Cloudy
Visibility: More than 10 km
Cloud details: Partly Cloudy 2500 ft
LGKC 261650Z 36010KT 9999 SCT025 13/10 Q1021
LGIR - Hraklio
Updated: 27-11-2020 05:50
NOT Current
Mostly Cloudy  
Mostly Cloudy  
   Wind: North 18.5 km/h
Wind: North 18.5 km/h
Temperature: 16°C
Dew Point: 11°C
Humidity: 72%
Barometer: 1018 hPa
Clouds: Mostly Cloudy
Visibility: More than 10 km
Cloud details: Few Clouds 1800 ft,
Mostly Cloudy 2500 ft
LGIR 270350Z 35010KT 9999 FEW018 BKN025 16/11 Q1018 NOSIG

Script developed by  Saratoga-weather.org Adapted for the template by  Weerstation Leuven

You find our weather info also at:

European Weather Network

WeatherCloud

Weather Underground

Hellas Meteo Network

AWEKAS

HAMweather, WeatherForYou, PWS Weather

MeteoPatras.Eu